メインページ
METAR-TAF:

METAR-TAF

空港 :

シアトル・タコマ国際空港

シアトル / タコマ, ワシントン, アメリカ合衆国

緯度: 47-26-41N, 経度: 122-18-49W, 海抜: 130m

現時点の気象観測

当レポートは33分前の04:53(UTC)に作成
南/南西の風 24kt、最大31ktの突風を伴う
気温 7°C
湿度 76%
気圧 1009 hPa
視程: 16.1km
高度2300ftの雲はほとんどない
高度16000ftの千切れ雲あり

METAR: KSEA 150453Z 21024G31KT 10SM FEW023 BKN160 07/03 A2979 RMK AO2 PK WND 22041/0406 SLP096 T00720028

時間: 21:26 (05:26 UTC)

予報

当レポートは2時間3分前の03:23(UTC)に作成
予報は15日の 03時(UTC)から 16日の 06時(UTC)まで有効
南/南西の風 24kt、最大34ktの突風を伴う
視程: 10km
高度2000ftの千切れ雲あり
高度4000ftの曇り
小雨
15日の 0500時(UTC)から
南/南西の風 16kt、最大24ktの突風を伴う
視程: 10km
高度2500ftの雲は散在している
高度5000ftの千切れ雲あり
近辺でにわか雨
15日の 0800時(UTC)から
南/南西の風 12kt
視程: 10km
高度5000ftの曇り
15日の 1200時(UTC)から
の風 7kt
視程: 10km
高度5000ftの千切れ雲あり
高度10000ftの千切れ雲あり
15日の 1800時(UTC)から
南/南東の風 8kt
視程: 10km
高度10000ftの千切れ雲あり
15日の 2200時(UTC)から
南東の風 10kt
視程: 10km
高度8000ftの曇り

TAF: KSEA 150323Z 1503/1606 20024G34KT P6SM -RA BKN020 OVC040 FM150500 21016G24KT P6SM VCSH SCT025 BKN050 FM150800 20012KT P6SM OVC050 FM151200 18007KT P6SM BKN050 BKN100 FM151800 15008KT P6SM BKN100 FM152200 13010KT P6SM OVC080

4,000以上の空港の気象観測と天気予報(METAR報とTAF報)

利用可能な観測所は地図上に黄色い丸と赤い丸で示す。

丸の上にカーソルを重ねると観測所名を参照できる。

次にクリックすると気象観測と天気予報を参照できる。

マップの切り替え:黒色「×」印の緑ボタンをクリックして拡大、「-」印の緑ボタンをクリックして縮小、緑色の三角印をクリックして隣りの地図に切り替え


METAR-TAF: